Time;durP1;ratioP1;P1;durP2;ratioP2;P2;SDS_P1;SDS_P2;PMS_P1;PMS_P2;Temp;Humidity;BMP_temperature;BMP_pressure;BME280_temperature;BME280_humidity;BME280_pressure;Samples;Min_cycle;Max_cycle;Signal;HPM_P1;HPM_P2
2021/05/29 00:00:46;;;;;;;21.43;20.33;;;;;;;;;;5015675;28;20977;-85
2021/05/29 00:03:15;;;;;;;20.97;19.87;;;;;;;;;;4998001;28;20481;-85
2021/05/29 00:05:42;;;;;;;21.10;20.00;;;;;;;;;;5015407;28;20415;-85
2021/05/29 00:08:09;;;;;;;21.83;20.63;;;;;;;;;;5015585;28;20426;-85
2021/05/29 00:10:36;;;;;;;22.60;21.30;;;;;;;;;;5015128;28;20517;-85
2021/05/29 00:13:03;;;;;;;21.80;20.60;;;;;;;;;;5015180;28;20419;-85
2021/05/29 00:15:31;;;;;;;21.80;20.47;;;;;;;;;;5015480;28;20404;-85
2021/05/29 00:17:58;;;;;;;22.07;20.70;;;;;;;;;;5014942;28;20445;-85
2021/05/29 00:20:26;;;;;;;22.60;21.13;;;;;;;;;;5015349;28;20414;-85
2021/05/29 00:22:53;;;;;;;21.60;20.40;;;;;;;;;;5014957;28;20455;-85
2021/05/29 00:25:19;;;;;;;21.47;20.20;;;;;;;;;;5015170;28;20422;-85
2021/05/29 00:27:46;;;;;;;21.47;20.30;;;;;;;;;;5015469;28;20484;-85
2021/05/29 00:30:14;;;;;;;21.00;19.80;;;;;;;;;;5015061;28;20794;-85
2021/05/29 00:32:41;;;;;;;20.87;19.57;;;;;;;;;;5014775;28;20513;-85
2021/05/29 00:35:11;;;;;;;21.47;20.23;;;;;;;;;;4997794;28;20452;-85
2021/05/29 00:37:39;;;;;;;22.97;21.63;;;;;;;;;;5014927;28;20509;-85
2021/05/29 00:40:06;;;;;;;22.60;21.30;;;;;;;;;;5014398;28;20418;-85
2021/05/29 00:42:33;;;;;;;21.60;20.33;;;;;;;;;;4997785;28;20835;-85
2021/05/29 00:45:00;;;;;;;21.50;20.30;;;;;;;;;;5014846;28;20406;-85
2021/05/29 00:47:28;;;;;;;23.00;21.70;;;;;;;;;;5014688;28;20480;-85
2021/05/29 00:49:56;;;;;;;22.60;21.30;;;;;;;;;;5015182;28;20521;-85
2021/05/29 00:52:23;;;;;;;24.30;22.80;;;;;;;;;;5014332;28;20437;-85
2021/05/29 00:54:51;;;;;;;30.53;27.90;;;;;;;;;;5014384;28;20931;-85
2021/05/29 00:57:18;;;;;;;25.17;23.17;;;;;;;;;;5014825;28;20432;-84
2021/05/29 00:59:45;;;;;;;24.73;23.03;;;;;;;;;;5014443;28;20905;-85
2021/05/29 01:02:14;;;;;;;29.93;27.50;;;;;;;;;;5014614;28;21002;-85
2021/05/29 01:04:41;;;;;;;36.00;32.90;;;;;;;;;;5014519;28;20467;-85
2021/05/29 01:07:09;;;;;;;41.20;37.30;;;;;;;;;;5014599;28;20836;-85
2021/05/29 01:09:36;;;;;;;41.77;37.40;;;;;;;;;;5014595;28;20448;-85
2021/05/29 01:12:05;;;;;;;43.47;39.00;;;;;;;;;;5014650;28;20422;-84
2021/05/29 01:14:32;;;;;;;42.37;38.13;;;;;;;;;;5014284;28;20411;-85
2021/05/29 01:17:01;;;;;;;41.30;37.70;;;;;;;;;;5014082;28;20835;-85
2021/05/29 01:19:28;;;;;;;43.13;39.00;;;;;;;;;;5014121;28;20439;-85
2021/05/29 01:21:55;;;;;;;41.97;37.87;;;;;;;;;;4997200;28;20485;-85
2021/05/29 01:24:24;;;;;;;40.50;36.47;;;;;;;;;;5014405;28;20422;-85
2021/05/29 01:26:51;;;;;;;41.87;37.87;;;;;;;;;;4996501;28;20430;-85
2021/05/29 01:29:18;;;;;;;44.77;40.37;;;;;;;;;;4996760;28;20455;-84
2021/05/29 01:31:48;;;;;;;41.60;37.50;;;;;;;;;;4996680;28;20802;-84
2021/05/29 01:34:15;;;;;;;44.37;40.10;;;;;;;;;;5014128;28;20806;-85
2021/05/29 01:36:42;;;;;;;43.03;39.03;;;;;;;;;;4996685;28;20546;-85
2021/05/29 01:39:11;;;;;;;44.07;39.87;;;;;;;;;;5014333;28;20876;-84
2021/05/29 01:41:38;;;;;;;42.30;38.10;;;;;;;;;;5014233;28;20801;-84
2021/05/29 01:44:08;;;;;;;43.50;39.17;;;;;;;;;;5013955;28;20410;-84
2021/05/29 01:46:35;;;;;;;43.83;39.50;;;;;;;;;;5013987;28;20411;-84
2021/05/29 01:49:02;;;;;;;42.30;38.20;;;;;;;;;;5013626;28;20487;-84
2021/05/29 01:51:29;;;;;;;43.33;38.80;;;;;;;;;;5015951;28;20430;-84
2021/05/29 01:53:56;;;;;;;42.43;38.10;;;;;;;;;;5018229;28;20467;-84
2021/05/29 01:56:23;;;;;;;43.63;39.03;;;;;;;;;;5017973;28;20443;-84
2021/05/29 01:58:51;;;;;;;47.30;39.30;;;;;;;;;;5017349;28;20968;-84
2021/05/29 02:01:18;;;;;;;44.90;40.20;;;;;;;;;;5017835;28;20487;-84
2021/05/29 02:03:45;;;;;;;41.63;37.33;;;;;;;;;;5017467;28;20421;-84
2021/05/29 02:06:13;;;;;;;42.63;36.77;;;;;;;;;;5017655;28;20809;-84
2021/05/29 02:08:40;;;;;;;42.77;38.53;;;;;;;;;;5017865;28;20846;-84
2021/05/29 02:11:07;;;;;;;39.30;35.33;;;;;;;;;;5017686;28;20415;-84
2021/05/29 02:13:35;;;;;;;39.87;35.57;;;;;;;;;;5017460;28;20906;-84
2021/05/29 02:16:04;;;;;;;40.58;36.20;;;;;;;;;;5017679;28;20485;-84
2021/05/29 02:18:31;;;;;;;46.93;36.97;;;;;;;;;;5017569;28;20231;-84
2021/05/29 02:20:59;;;;;;;39.80;35.70;;;;;;;;;;5017471;28;20455;-84
2021/05/29 02:23:26;;;;;;;40.60;36.23;;;;;;;;;;5017558;28;20418;-84
2021/05/29 02:25:55;;;;;;;44.87;39.97;;;;;;;;;;5017503;28;20418;-84
2021/05/29 02:28:22;;;;;;;43.20;37.40;;;;;;;;;;5000269;28;20443;-84
2021/05/29 02:30:50;;;;;;;43.50;38.93;;;;;;;;;;5017383;28;20443;-84
2021/05/29 02:33:18;;;;;;;40.50;36.78;;;;;;;;;;5016945;28;20423;-84
2021/05/29 02:35:45;;;;;;;39.50;35.53;;;;;;;;;;5016551;28;20271;-84
2021/05/29 02:38:12;;;;;;;41.00;36.50;;;;;;;;;;5017092;28;20430;-84
2021/05/29 02:40:39;;;;;;;44.40;38.20;;;;;;;;;;5017301;28;20411;-84
2021/05/29 02:43:06;;;;;;;41.13;36.93;;;;;;;;;;5017165;28;20465;-84
2021/05/29 02:45:34;;;;;;;46.27;35.60;;;;;;;;;;5017026;28;20440;-84
2021/05/29 02:48:01;;;;;;;41.93;37.33;;;;;;;;;;4999923;28;20479;-83
2021/05/29 02:50:29;;;;;;;42.10;37.60;;;;;;;;;;5017074;28;20418;-84
2021/05/29 02:52:56;;;;;;;38.57;34.70;;;;;;;;;;5017065;28;20439;-83
2021/05/29 02:55:23;;;;;;;40.70;36.50;;;;;;;;;;5017228;28;20459;-84
2021/05/29 02:57:51;;;;;;;41.87;37.40;;;;;;;;;;5016911;28;20436;-84
2021/05/29 03:00:19;;;;;;;40.40;36.30;;;;;;;;;;5017098;28;20462;-83
2021/05/29 03:02:45;;;;;;;39.27;35.17;;;;;;;;;;5015672;28;20479;-84
2021/05/29 03:05:13;;;;;;;46.90;37.47;;;;;;;;;;5016817;28;20926;-84
2021/05/29 03:07:41;;;;;;;41.55;37.17;;;;;;;;;;5016689;28;20417;-84
2021/05/29 03:10:08;;;;;;;40.83;36.40;;;;;;;;;;5016539;28;20200;-84
2021/05/29 03:12:37;;;;;;;45.40;37.80;;;;;;;;;;5016332;28;20422;-84
2021/05/29 03:15:05;;;;;;;43.43;36.80;;;;;;;;;;5016475;28;20430;-84
2021/05/29 03:17:32;;;;;;;43.97;39.47;;;;;;;;;;5016354;28;20466;-84
2021/05/29 03:19:59;;;;;;;41.27;35.83;;;;;;;;;;5016398;28;20429;-84
2021/05/29 03:22:26;;;;;;;48.10;36.53;;;;;;;;;;4999225;28;20480;-89
2021/05/29 03:24:54;;;;;;;44.10;38.00;;;;;;;;;;5016634;28;20427;-90
2021/05/29 03:27:21;;;;;;;40.30;35.20;;;;;;;;;;5016139;28;20435;-90
2021/05/29 03:29:48;;;;;;;43.00;35.27;;;;;;;;;;4999004;28;20916;-90
2021/05/29 03:32:15;;;;;;;39.70;35.58;;;;;;;;;;5016084;28;20431;-90
2021/05/29 03:34:42;;;;;;;38.73;34.37;;;;;;;;;;5016041;28;20203;-90
2021/05/29 03:37:10;;;;;;;39.50;35.40;;;;;;;;;;5016262;28;20436;-90
2021/05/29 03:39:37;;;;;;;52.43;35.57;;;;;;;;;;5015928;28;20437;-90
2021/05/29 03:42:05;;;;;;;39.30;34.90;;;;;;;;;;5016197;28;20487;-90
2021/05/29 03:44:32;;;;;;;38.17;34.07;;;;;;;;;;5016275;28;20426;-91
2021/05/29 03:46:59;;;;;;;39.03;34.77;;;;;;;;;;5016053;28;20896;-90
2021/05/29 03:49:26;;;;;;;43.03;34.90;;;;;;;;;;5015342;28;20484;-90
2021/05/29 03:51:52;;;;;;;38.42;34.35;;;;;;;;;;5015773;28;20447;-90
2021/05/29 03:54:20;;;;;;;40.13;34.80;;;;;;;;;;5015544;28;20233;-90
2021/05/29 03:56:46;;;;;;;40.27;35.97;;;;;;;;;;5016640;28;20820;-90
2021/05/29 03:59:15;;;;;;;39.50;35.70;;;;;;;;;;5015962;28;20414;-90
2021/05/29 04:01:43;;;;;;;39.27;35.30;;;;;;;;;;5015394;28;21051;-89
2021/05/29 04:04:10;;;;;;;39.17;35.17;;;;;;;;;;4997994;28;20486;-90
2021/05/29 04:06:38;;;;;;;43.13;34.97;;;;;;;;;;5015466;28;20531;-90
2021/05/29 04:09:06;;;;;;;39.17;34.43;;;;;;;;;;5015546;28;20437;-90
2021/05/29 04:11:33;;;;;;;35.67;32.17;;;;;;;;;;5015957;28;20471;-89
2021/05/29 04:14:00;;;;;;;35.90;32.40;;;;;;;;;;5014544;28;20414;-89
2021/05/29 04:16:28;;;;;;;34.97;31.37;;;;;;;;;;5015125;28;20452;-89
2021/05/29 04:18:55;;;;;;;36.27;32.57;;;;;;;;;;5015507;28;20429;-90
2021/05/29 04:21:22;;;;;;;39.03;33.90;;;;;;;;;;5015008;28;20413;-89
2021/05/29 04:23:49;;;;;;;35.33;31.20;;;;;;;;;;5015303;28;20439;-90
2021/05/29 04:26:16;;;;;;;36.07;31.80;;;;;;;;;;5015371;28;20450;-89
2021/05/29 04:28:43;;;;;;;30.00;26.87;;;;;;;;;;5015163;28;20477;-90
2021/05/29 04:31:10;;;;;;;34.60;31.07;;;;;;;;;;5015017;28;20458;-90
2021/05/29 04:33:38;;;;;;;30.03;27.40;;;;;;;;;;5014789;28;20422;-90
2021/05/29 04:36:05;;;;;;;32.37;28.73;;;;;;;;;;5014846;28;20448;-90
2021/05/29 04:38:32;;;;;;;30.63;28.13;;;;;;;;;;5014886;28;20455;-90
2021/05/29 04:40:59;;;;;;;30.10;27.50;;;;;;;;;;5015261;28;20427;-83
2021/05/29 04:43:26;;;;;;;33.20;30.23;;;;;;;;;;5014831;28;20553;-91
2021/05/29 04:45:53;;;;;;;32.83;29.50;;;;;;;;;;5014747;28;20439;-91
2021/05/29 04:48:20;;;;;;;32.33;29.10;;;;;;;;;;4994183;28;20454;-91
2021/05/29 04:53:33;;;;;;;32.70;29.57;;;;;;;;;;4995297;28;20484;-91
2021/05/29 04:56:01;;;;;;;32.27;29.00;;;;;;;;;;4995020;28;20419;-91
2021/05/29 04:58:28;;;;;;;32.73;29.80;;;;;;;;;;4995352;28;20516;-91
2021/05/29 05:00:55;;;;;;;32.33;29.47;;;;;;;;;;4994299;28;20816;-91
2021/05/29 05:03:23;;;;;;;31.67;28.77;;;;;;;;;;4994735;28;20492;-91
2021/05/29 05:05:51;;;;;;;32.40;29.50;;;;;;;;;;4995028;28;20445;-92
2021/05/29 05:08:18;;;;;;;32.47;29.33;;;;;;;;;;4995221;28;20441;-90
2021/05/29 05:10:45;;;;;;;31.80;28.63;;;;;;;;;;4996236;28;20412;-91
2021/05/29 05:13:12;;;;;;;31.60;28.60;;;;;;;;;;4995142;28;20437;-90
2021/05/29 05:15:39;;;;;;;30.90;28.23;;;;;;;;;;4994881;28;20889;-90
2021/05/29 05:18:08;;;;;;;29.80;27.30;;;;;;;;;;4995116;28;20420;-89
2021/05/29 05:20:35;;;;;;;30.97;27.90;;;;;;;;;;4994063;28;20449;-90
2021/05/29 05:23:03;;;;;;;29.33;26.30;;;;;;;;;;4993619;28;20535;-87
2021/05/29 05:25:31;;;;;;;30.43;27.90;;;;;;;;;;4994231;28;20431;-86
2021/05/29 05:27:58;;;;;;;30.73;28.03;;;;;;;;;;4998560;28;20554;-87
2021/05/29 05:30:25;;;;;;;30.13;27.30;;;;;;;;;;4997921;28;20507;-88
2021/05/29 05:32:53;;;;;;;28.57;26.23;;;;;;;;;;4998630;28;21052;-87
2021/05/29 05:35:21;;;;;;;30.77;27.80;;;;;;;;;;4997603;28;20486;-87
2021/05/29 05:37:49;;;;;;;29.43;26.67;;;;;;;;;;4997890;28;20422;-87
2021/05/29 05:40:18;;;;;;;29.03;26.60;;;;;;;;;;4997667;28;20448;-87
2021/05/29 05:42:45;;;;;;;28.17;25.63;;;;;;;;;;4998674;28;20941;-87
2021/05/29 05:45:14;;;;;;;29.80;27.20;;;;;;;;;;4998268;28;20422;-87
2021/05/29 05:47:41;;;;;;;27.87;25.63;;;;;;;;;;4998930;28;20453;-88
2021/05/29 05:50:09;;;;;;;30.87;27.97;;;;;;;;;;5018310;28;20820;-86
2021/05/29 05:52:36;;;;;;;31.40;28.43;;;;;;;;;;5018450;28;20509;-87
2021/05/29 05:55:03;;;;;;;31.43;28.33;;;;;;;;;;5018010;28;20472;-86
2021/05/29 05:57:32;;;;;;;28.90;26.20;;;;;;;;;;5018016;28;20422;-87
2021/05/29 05:59:59;;;;;;;28.30;25.80;;;;;;;;;;5017816;28;20428;-88
2021/05/29 06:02:26;;;;;;;30.67;27.63;;;;;;;;;;5017374;28;20499;-88
2021/05/29 06:04:53;;;;;;;29.27;26.90;;;;;;;;;;5018279;28;20443;-89
2021/05/29 06:07:20;;;;;;;27.83;25.50;;;;;;;;;;5018044;28;20465;-89
2021/05/29 06:09:47;;;;;;;27.27;25.20;;;;;;;;;;5000518;28;20471;-89
2021/05/29 06:12:14;;;;;;;28.40;26.10;;;;;;;;;;5017963;28;20438;-88
2021/05/29 06:20:13;;;;;;;30.00;27.57;;;;;;;;;;5017634;28;20559;-90
2021/05/29 06:22:40;;;;;;;28.23;25.67;;;;;;;;;;5017505;28;20960;-89
2021/05/29 06:25:08;;;;;;;29.03;26.73;;;;;;;;;;5000238;28;20440;-89
2021/05/29 06:27:35;;;;;;;27.03;24.73;;;;;;;;;;5017717;28;20441;-90
2021/05/29 06:30:04;;;;;;;25.60;23.83;;;;;;;;;;5017790;28;20432;-89
2021/05/29 06:32:30;;;;;;;25.50;23.60;;;;;;;;;;5017283;28;20458;-89
2021/05/29 06:34:57;;;;;;;24.93;23.23;;;;;;;;;;5017453;28;20459;-89
2021/05/29 06:37:24;;;;;;;25.07;23.23;;;;;;;;;;5016252;28;20415;-89
2021/05/29 06:39:51;;;;;;;27.07;25.07;;;;;;;;;;5017505;28;20790;-88
2021/05/29 06:42:18;;;;;;;26.17;24.03;;;;;;;;;;5017308;28;20462;-88
2021/05/29 06:44:45;;;;;;;27.03;24.93;;;;;;;;;;4999125;28;20456;-88
2021/05/29 06:47:13;;;;;;;25.90;24.00;;;;;;;;;;4999529;28;20455;-89
2021/05/29 06:49:40;;;;;;;27.03;24.90;;;;;;;;;;5016404;28;20583;-89
2021/05/29 06:52:09;;;;;;;27.10;24.93;;;;;;;;;;5016628;28;20422;-88
2021/05/29 06:54:47;;;;;;;25.77;23.87;;;;;;;;;;5017062;28;20447;-87
2021/05/29 06:59:59;;;;;;;25.20;23.50;;;;;;;;;;5016622;28;20449;-88
2021/05/29 07:02:27;;;;;;;25.67;23.57;;;;;;;;;;5016927;28;20495;-89
2021/05/29 07:04:54;;;;;;;27.50;25.20;;;;;;;;;;5016366;28;20445;-88
2021/05/29 07:07:21;;;;;;;25.53;23.53;;;;;;;;;;5016307;28;20907;-88
2021/05/29 07:09:48;;;;;;;26.73;24.83;;;;;;;;;;5017433;28;20441;-90
2021/05/29 07:12:14;;;;;;;28.80;26.40;;;;;;;;;;5016291;28;20445;-89
2021/05/29 07:14:41;;;;;;;27.40;25.17;;;;;;;;;;5016112;28;20423;-90
2021/05/29 07:17:08;;;;;;;29.67;27.30;;;;;;;;;;5016915;28;20419;-89
2021/05/29 07:19:36;;;;;;;28.10;25.60;;;;;;;;;;5016100;28;20422;-86
2021/05/29 07:22:03;;;;;;;29.30;26.90;;;;;;;;;;5016162;28;20468;-87
2021/05/29 07:24:31;;;;;;;30.47;27.77;;;;;;;;;;5016150;28;20445;-87
2021/05/29 07:26:58;;;;;;;30.00;27.30;;;;;;;;;;5016325;28;20427;-87
2021/05/29 07:29:27;;;;;;;29.50;27.00;;;;;;;;;;5016367;28;20445;-90
2021/05/29 07:31:53;;;;;;;29.17;26.93;;;;;;;;;;5016010;28;20414;-91
2021/05/29 07:34:22;;;;;;;28.53;26.20;;;;;;;;;;5015910;28;20448;-87
2021/05/29 07:36:50;;;;;;;29.00;26.70;;;;;;;;;;5016420;28;20447;-87
2021/05/29 07:39:17;;;;;;;30.00;27.47;;;;;;;;;;4998840;28;20411;-87
2021/05/29 07:41:44;;;;;;;29.40;26.97;;;;;;;;;;5016086;28;20444;-86
2021/05/29 07:44:11;;;;;;;29.47;26.87;;;;;;;;;;5016016;28;21009;-84
2021/05/29 07:46:38;;;;;;;30.57;27.93;;;;;;;;;;5016125;28;20453;-87
2021/05/29 07:49:05;;;;;;;30.43;27.73;;;;;;;;;;5015294;28;20488;-86
2021/05/29 07:51:35;;;;;;;30.40;27.60;;;;;;;;;;4998451;28;20457;-85
2021/05/29 07:54:03;;;;;;;30.53;27.90;;;;;;;;;;5015912;28;20559;-86
2021/05/29 07:56:30;;;;;;;28.67;26.37;;;;;;;;;;5015711;28;20415;-86
2021/05/29 07:58:58;;;;;;;29.73;27.23;;;;;;;;;;4998520;28;20923;-86
2021/05/29 08:01:25;;;;;;;30.07;27.60;;;;;;;;;;5015611;28;20445;-87
2021/05/29 08:03:52;;;;;;;30.30;28.00;;;;;;;;;;5015252;28;20476;-86
2021/05/29 08:06:21;;;;;;;29.27;26.97;;;;;;;;;;5015057;28;20478;-87
2021/05/29 08:08:48;;;;;;;30.30;27.80;;;;;;;;;;5015042;28;21004;-86
2021/05/29 08:11:18;;;;;;;31.30;28.80;;;;;;;;;;5015339;28;20903;-87
2021/05/29 08:13:46;;;;;;;32.00;29.07;;;;;;;;;;5014970;28;20456;-87
2021/05/29 08:16:14;;;;;;;31.57;28.87;;;;;;;;;;5015498;28;20448;-86
2021/05/29 08:18:41;;;;;;;32.23;29.23;;;;;;;;;;5015318;28;20426;-87
2021/05/29 08:21:08;;;;;;;30.53;28.00;;;;;;;;;;5015078;28;20871;-86
2021/05/29 08:23:35;;;;;;;30.70;28.27;;;;;;;;;;5014863;28;20546;-87
2021/05/29 08:26:02;;;;;;;32.67;29.50;;;;;;;;;;5015186;28;20448;-87
2021/05/29 08:28:30;;;;;;;31.97;29.20;;;;;;;;;;5014814;28;20431;-86
2021/05/29 08:30:57;;;;;;;32.73;30.13;;;;;;;;;;5014662;28;20770;-86
2021/05/29 08:33:24;;;;;;;31.77;29.20;;;;;;;;;;5014712;28;20444;-86
2021/05/29 08:35:51;;;;;;;30.43;28.13;;;;;;;;;;5014730;28;20793;-86
2021/05/29 08:38:18;;;;;;;30.93;28.30;;;;;;;;;;4997441;28;20423;-87
2021/05/29 08:40:45;;;;;;;32.53;30.03;;;;;;;;;;5014933;28;20425;-87
2021/05/29 08:43:12;;;;;;;31.17;28.57;;;;;;;;;;5013558;28;20462;-82
2021/05/29 08:45:40;;;;;;;31.33;28.87;;;;;;;;;;5014479;28;20479;-82
2021/05/29 08:48:07;;;;;;;33.20;30.50;;;;;;;;;;5014491;28;20479;-85
2021/05/29 08:50:34;;;;;;;30.27;27.60;;;;;;;;;;5014905;28;20440;-85
2021/05/29 08:53:01;;;;;;;31.67;28.57;;;;;;;;;;5014775;28;20450;-80
2021/05/29 08:55:28;;;;;;;30.13;27.70;;;;;;;;;;5014836;28;20411;-89
2021/05/29 08:57:56;;;;;;;34.60;31.43;;;;;;;;;;5014748;28;20445;-89
2021/05/29 09:00:24;;;;;;;32.63;29.80;;;;;;;;;;5014161;28;20407;-89
2021/05/29 09:02:59;;;;;;;32.80;30.03;;;;;;;;;;5014597;28;20466;-89
2021/05/29 09:05:42;;;;;;;34.30;30.77;;;;;;;;;;5014660;28;20414;-87
2021/05/29 09:08:10;;;;;;;35.07;31.97;;;;;;;;;;5014594;28;20897;-87
2021/05/29 09:10:39;;;;;;;32.07;29.40;;;;;;;;;;5014755;28;20445;-86
2021/05/29 09:13:11;;;;;;;33.17;30.33;;;;;;;;;;5014390;28;20480;-87
2021/05/29 09:15:46;;;;;;;33.67;30.80;;;;;;;;;;5014232;28;20933;-87
2021/05/29 09:18:31;;;;;;;34.27;30.90;;;;;;;;;;5014344;28;20428;-89
2021/05/29 09:21:12;;;;;;;34.00;30.77;;;;;;;;;;5014474;28;20925;-89
2021/05/29 09:23:44;;;;;;;32.10;29.30;;;;;;;;;;5011449;28;20957;-90
2021/05/29 09:26:11;;;;;;;32.93;30.20;;;;;;;;;;5014159;28;20426;-90
2021/05/29 09:28:41;;;;;;;33.83;30.93;;;;;;;;;;4981175;28;20450;-88
2021/05/29 09:31:12;;;;;;;34.53;31.30;;;;;;;;;;5014498;28;20445;-90
2021/05/29 09:33:40;;;;;;;31.50;28.90;;;;;;;;;;5014163;28;21015;-90
2021/05/29 09:36:10;;;;;;;31.90;29.03;;;;;;;;;;5014134;28;20498;-90
2021/05/29 09:38:37;;;;;;;31.00;28.30;;;;;;;;;;5014146;28;20436;-89
2021/05/29 09:41:07;;;;;;;32.30;29.37;;;;;;;;;;5014327;28;20441;-90
2021/05/29 09:43:48;;;;;;;31.30;28.70;;;;;;;;;;5014200;28;20462;-91
2021/05/29 09:46:15;;;;;;;31.43;28.63;;;;;;;;;;4996715;28;20776;-91
2021/05/29 09:48:53;;;;;;;32.10;29.20;;;;;;;;;;5013968;28;20529;-91
2021/05/29 09:51:21;;;;;;;32.73;30.03;;;;;;;;;;5013993;28;20445;-91
2021/05/29 09:53:48;;;;;;;33.00;30.13;;;;;;;;;;5014118;28;20591;-90
2021/05/29 09:56:26;;;;;;;32.60;29.90;;;;;;;;;;5013961;28;20444;-88
2021/05/29 09:58:55;;;;;;;34.10;31.10;;;;;;;;;;5014292;28;20419;-88
2021/05/29 10:01:42;;;;;;;32.40;29.10;;;;;;;;;;5014161;28;20411;-88
2021/05/29 10:04:11;;;;;;;32.97;30.30;;;;;;;;;;4996296;28;20427;-88
2021/05/29 10:06:38;;;;;;;32.27;29.37;;;;;;;;;;5014220;28;20469;-89
2021/05/29 10:09:06;;;;;;;32.60;29.93;;;;;;;;;;5013905;28;20411;-88
2021/05/29 10:11:35;;;;;;;31.40;28.90;;;;;;;;;;5014656;28;20519;-87
2021/05/29 10:14:02;;;;;;;31.80;29.00;;;;;;;;;;5017654;28;20427;-88
2021/05/29 10:16:29;;;;;;;31.67;28.87;;;;;;;;;;5017811;28;20799;-88
2021/05/29 10:18:58;;;;;;;31.03;28.63;;;;;;;;;;5017758;28;20440;-88
2021/05/29 10:21:29;;;;;;;33.43;30.63;;;;;;;;;;5017890;28;20439;-88
2021/05/29 10:23:56;;;;;;;31.07;28.47;;;;;;;;;;5017301;28;20484;-88
2021/05/29 10:26:23;;;;;;;30.73;28.33;;;;;;;;;;5017354;28;20426;-88
2021/05/29 10:28:50;;;;;;;31.00;28.43;;;;;;;;;;5017200;28;20456;-88
2021/05/29 10:31:17;;;;;;;30.87;28.47;;;;;;;;;;5017253;28;20415;-88
2021/05/29 10:33:45;;;;;;;32.13;29.50;;;;;;;;;;5017079;28;20470;-89
2021/05/29 10:36:36;;;;;;;30.47;28.10;;;;;;;;;;5017446;28;20419;-87
2021/05/29 10:39:04;;;;;;;31.23;28.67;;;;;;;;;;5017451;28;20442;-88
2021/05/29 10:41:50;;;;;;;31.23;28.73;;;;;;;;;;5017089;28;20449;-77
2021/05/29 10:44:30;;;;;;;31.67;29.10;;;;;;;;;;5016207;28;20455;-81
2021/05/29 10:47:08;;;;;;;31.70;29.07;;;;;;;;;;5016239;28;20912;-78
2021/05/29 10:49:52;;;;;;;31.73;29.10;;;;;;;;;;5016124;28;20829;-79
2021/05/29 10:52:40;;;;;;;31.10;28.50;;;;;;;;;;5016194;28;20419;-83
2021/05/29 10:55:20;;;;;;;29.40;26.90;;;;;;;;;;5016838;28;20541;-85
2021/05/29 10:57:51;;;;;;;31.27;28.53;;;;;;;;;;5016293;28;20419;-81
2021/05/29 11:00:33;;;;;;;30.47;28.17;;;;;;;;;;5016797;28;20437;-81
2021/05/29 11:03:15;;;;;;;31.83;29.33;;;;;;;;;;5015097;28;20471;-80
2021/05/29 11:05:41;;;;;;;30.93;28.53;;;;;;;;;;5013205;28;20446;-80
2021/05/29 11:08:23;;;;;;;30.37;28.07;;;;;;;;;;5016233;28;20411;-80
2021/05/29 11:10:51;;;;;;;29.30;27.10;;;;;;;;;;5015273;28;20989;-80
2021/05/29 11:13:18;;;;;;;31.77;29.17;;;;;;;;;;5015832;28;20411;-80
2021/05/29 11:15:59;;;;;;;30.33;28.13;;;;;;;;;;5015814;28;20438;-81
2021/05/29 11:18:26;;;;;;;31.10;28.77;;;;;;;;;;5015503;28;20778;-80
2021/05/29 11:21:02;;;;;;;31.40;28.90;;;;;;;;;;5016849;28;20416;-80
2021/05/29 11:23:29;;;;;;;32.40;30.07;;;;;;;;;;5014732;28;20817;-80
2021/05/29 11:25:57;;;;;;;31.80;29.40;;;;;;;;;;4998122;28;20420;-80
2021/05/29 11:28:24;;;;;;;31.23;28.93;;;;;;;;;;5015920;28;20500;-81
2021/05/29 11:30:51;;;;;;;30.63;28.23;;;;;;;;;;5015801;28;20441;-80
2021/05/29 11:33:18;;;;;;;33.67;30.97;;;;;;;;;;4998433;28;20441;-80
2021/05/29 11:35:46;;;;;;;32.03;29.40;;;;;;;;;;5015775;28;20446;-81
2021/05/29 11:38:15;;;;;;;32.50;29.87;;;;;;;;;;4998253;28;20499;-80
2021/05/29 11:40:43;;;;;;;31.37;29.17;;;;;;;;;;5015696;28;20445;-80
2021/05/29 11:43:11;;;;;;;31.73;29.17;;;;;;;;;;5015640;28;20549;-80
2021/05/29 11:45:38;;;;;;;31.63;29.30;;;;;;;;;;5015488;28;20800;-80
2021/05/29 11:48:05;;;;;;;30.70;28.40;;;;;;;;;;5015349;28;20438;-80
2021/05/29 11:50:32;;;;;;;31.73;29.40;;;;;;;;;;5015151;28;20905;-81
2021/05/29 11:53:00;;;;;;;31.87;29.47;;;;;;;;;;5015359;28;20471;-81
2021/05/29 11:55:27;;;;;;;30.87;28.67;;;;;;;;;;4998108;28;20409;-80
2021/05/29 11:58:01;;;;;;;31.53;29.03;;;;;;;;;;5015363;28;20404;-81
2021/05/29 12:00:29;;;;;;;31.07;28.70;;;;;;;;;;5014806;28;20424;-81
2021/05/29 12:02:56;;;;;;;31.20;28.97;;;;;;;;;;5014730;28;20454;-80
2021/05/29 12:05:24;;;;;;;29.93;27.73;;;;;;;;;;5015139;28;20437;-80
2021/05/29 12:08:01;;;;;;;30.90;28.60;;;;;;;;;;5015103;28;20412;-80
2021/05/29 12:10:43;;;;;;;30.10;27.90;;;;;;;;;;5015172;28;20438;-81
2021/05/29 12:13:10;;;;;;;30.10;27.80;;;;;;;;;;5014755;28;20419;-80
2021/05/29 12:15:37;;;;;;;30.37;28.07;;;;;;;;;;5014649;28;20568;-80
2021/05/29 12:18:04;;;;;;;29.13;27.07;;;;;;;;;;5014912;28;20411;-81
2021/05/29 12:20:32;;;;;;;29.47;27.40;;;;;;;;;;4997110;28;20981;-81
2021/05/29 12:23:02;;;;;;;30.43;28.23;;;;;;;;;;4996694;28;20477;-81
2021/05/29 12:25:29;;;;;;;30.70;28.50;;;;;;;;;;5014788;28;20449;-81
2021/05/29 12:27:56;;;;;;;29.03;26.97;;;;;;;;;;5015109;28;20764;-81
2021/05/29 12:30:25;;;;;;;28.63;26.73;;;;;;;;;;5014369;28;20969;-81
2021/05/29 12:32:53;;;;;;;30.30;28.10;;;;;;;;;;5014563;28;20399;-80
2021/05/29 12:35:31;;;;;;;30.17;28.00;;;;;;;;;;5013392;28;20796;-80
2021/05/29 12:38:08;;;;;;;29.40;27.30;;;;;;;;;;5014686;28;20442;-81
2021/05/29 12:40:35;;;;;;;30.47;28.20;;;;;;;;;;5014608;28;20407;-81
2021/05/29 12:43:03;;;;;;;30.03;27.93;;;;;;;;;;5014441;28;20488;-80
2021/05/29 12:45:30;;;;;;;29.00;27.00;;;;;;;;;;4996899;28;20532;-81
2021/05/29 12:47:58;;;;;;;29.10;26.80;;;;;;;;;;5014242;28;20448;-81
2021/05/29 12:50:26;;;;;;;29.40;27.20;;;;;;;;;;4996616;28;20931;-80
2021/05/29 12:53:07;;;;;;;29.90;27.53;;;;;;;;;;5014287;28;20461;-81
2021/05/29 12:55:34;;;;;;;28.63;26.63;;;;;;;;;;5014014;28;20439;-81
2021/05/29 12:58:12;;;;;;;29.50;27.50;;;;;;;;;;5014278;28;20437;-81
2021/05/29 13:00:47;;;;;;;30.20;28.20;;;;;;;;;;5013947;28;20437;-81
2021/05/29 13:09:09;;;;;;;29.13;27.10;;;;;;;;;;5014288;28;20407;-80
2021/05/29 13:11:37;;;;;;;30.33;28.03;;;;;;;;;;5013858;28;20453;-81
2021/05/29 13:14:05;;;;;;;29.70;27.60;;;;;;;;;;5014058;28;20473;-80
2021/05/29 13:16:46;;;;;;;27.63;25.73;;;;;;;;;;5013774;28;20440;-81
2021/05/29 13:19:14;;;;;;;29.03;27.07;;;;;;;;;;5014010;28;20418;-80
2021/05/29 13:21:49;;;;;;;28.60;26.70;;;;;;;;;;5013784;28;20475;-81
2021/05/29 13:24:39;;;;;;;29.43;27.43;;;;;;;;;;5013487;28;20479;-81
2021/05/29 13:27:06;;;;;;;30.40;28.30;;;;;;;;;;5013958;28;20786;-81
2021/05/29 13:29:33;;;;;;;29.90;27.67;;;;;;;;;;5013891;28;20447;-81
2021/05/29 13:32:04;;;;;;;30.87;28.73;;;;;;;;;;5013825;28;20446;-81
2021/05/29 13:34:31;;;;;;;28.90;26.90;;;;;;;;;;5013830;28;20430;-80
2021/05/29 13:36:59;;;;;;;28.80;26.80;;;;;;;;;;5013965;28;20408;-81
2021/05/29 13:39:26;;;;;;;28.60;26.70;;;;;;;;;;5013267;28;20425;-80
2021/05/29 13:41:53;;;;;;;29.07;27.07;;;;;;;;;;5013836;28;20886;-81
2021/05/29 13:44:19;;;;;;;28.47;26.57;;;;;;;;;;5013710;28;20459;-81
2021/05/29 13:46:46;;;;;;;29.80;27.70;;;;;;;;;;5014757;28;20414;-81
2021/05/29 13:49:14;;;;;;;31.97;29.50;;;;;;;;;;5017120;28;20460;-81
2021/05/29 13:51:44;;;;;;;30.47;28.27;;;;;;;;;;5000419;28;20841;-80
2021/05/29 13:54:11;;;;;;;29.67;27.67;;;;;;;;;;5017540;28;20544;-81
2021/05/29 13:56:38;;;;;;;30.70;28.40;;;;;;;;;;5017663;28;20404;-81
2021/05/29 13:59:05;;;;;;;29.70;27.40;;;;;;;;;;5017106;28;20452;-81
2021/05/29 14:01:33;;;;;;;28.83;26.80;;;;;;;;;;5017527;28;20444;-81
2021/05/29 14:04:02;;;;;;;28.70;26.70;;;;;;;;;;5016936;28;20484;-81
2021/05/29 14:06:29;;;;;;;29.07;27.00;;;;;;;;;;5017487;28;20430;-81
2021/05/29 14:08:57;;;;;;;30.70;28.60;;;;;;;;;;5017387;28;20440;-81
2021/05/29 14:11:25;;;;;;;29.63;27.47;;;;;;;;;;5016980;28;20445;-80
2021/05/29 14:13:53;;;;;;;30.03;27.73;;;;;;;;;;5017220;28;20511;-82
2021/05/29 14:16:19;;;;;;;31.00;28.80;;;;;;;;;;5017260;28;20411;-80
2021/05/29 14:18:47;;;;;;;28.93;27.03;;;;;;;;;;5017260;28;20801;-80
2021/05/29 14:21:14;;;;;;;29.40;27.40;;;;;;;;;;5016726;28;20415;-81
2021/05/29 14:23:41;;;;;;;29.13;27.03;;;;;;;;;;5017210;28;20488;-86
2021/05/29 14:26:09;;;;;;;30.23;28.20;;;;;;;;;;4999807;28;20428;-82
2021/05/29 14:28:36;;;;;;;29.17;27.33;;;;;;;;;;5017177;28;20423;-81
2021/05/29 14:31:05;;;;;;;28.10;26.30;;;;;;;;;;5017035;28;20443;-81
2021/05/29 14:33:32;;;;;;;30.23;28.03;;;;;;;;;;5016883;28;20441;-83
2021/05/29 14:36:00;;;;;;;29.63;27.67;;;;;;;;;;5016789;28;20458;-85
2021/05/29 14:38:27;;;;;;;28.27;26.33;;;;;;;;;;5016649;28;20449;-81
2021/05/29 14:40:54;;;;;;;29.53;27.37;;;;;;;;;;5016575;28;20439;-81